sensor_id;sensor_type;location;lat;lon;timestamp;temperature;humidity
963;DHT22;469;48.770;9.176;2022-07-25T00:01:50;22.90;1.00
963;DHT22;469;48.770;9.176;2022-07-25T00:04:17;22.80;1.00
963;DHT22;469;48.770;9.176;2022-07-25T00:06:44;22.80;1.00
963;DHT22;469;48.770;9.176;2022-07-25T00:09:12;22.80;1.00
963;DHT22;469;48.770;9.176;2022-07-25T00:11:39;22.80;1.00
963;DHT22;469;48.770;9.176;2022-07-25T00:14:06;22.70;1.00
963;DHT22;469;48.770;9.176;2022-07-25T00:16:33;22.70;1.00
963;DHT22;469;48.770;9.176;2022-07-25T00:19:00;22.60;1.00
963;DHT22;469;48.770;9.176;2022-07-25T00:21:26;22.60;1.00
963;DHT22;469;48.770;9.176;2022-07-25T00:23:53;22.60;1.00
963;DHT22;469;48.770;9.176;2022-07-25T00:26:21;22.60;1.00
963;DHT22;469;48.770;9.176;2022-07-25T00:28:48;22.60;1.00
963;DHT22;469;48.770;9.176;2022-07-25T00:31:17;22.60;1.00
963;DHT22;469;48.770;9.176;2022-07-25T00:33:43;22.60;1.00
963;DHT22;469;48.770;9.176;2022-07-25T00:36:10;22.60;1.00
963;DHT22;469;48.770;9.176;2022-07-25T00:38:37;22.50;1.00
963;DHT22;469;48.770;9.176;2022-07-25T00:41:04;22.50;1.00
963;DHT22;469;48.770;9.176;2022-07-25T00:43:32;22.50;1.00
963;DHT22;469;48.770;9.176;2022-07-25T00:45:59;22.50;1.00
963;DHT22;469;48.770;9.176;2022-07-25T00:48:26;22.50;1.00
963;DHT22;469;48.770;9.176;2022-07-25T00:50:53;22.60;1.00
963;DHT22;469;48.770;9.176;2022-07-25T00:53:20;22.50;1.00
963;DHT22;469;48.770;9.176;2022-07-25T00:55:47;22.60;1.00
963;DHT22;469;48.770;9.176;2022-07-25T00:58:14;22.60;1.00
963;DHT22;469;48.770;9.176;2022-07-25T01:00:44;22.60;1.00
963;DHT22;469;48.770;9.176;2022-07-25T01:03:11;22.60;1.00
963;DHT22;469;48.770;9.176;2022-07-25T01:05:38;22.60;1.00
963;DHT22;469;48.770;9.176;2022-07-25T01:08:06;22.60;1.00
963;DHT22;469;48.770;9.176;2022-07-25T01:10:33;22.50;1.00
963;DHT22;469;48.770;9.176;2022-07-25T01:13:00;22.40;1.00
963;DHT22;469;48.770;9.176;2022-07-25T01:15:27;22.40;1.00
963;DHT22;469;48.770;9.176;2022-07-25T01:17:55;22.40;1.00
963;DHT22;469;48.770;9.176;2022-07-25T01:20:25;22.30;1.00
963;DHT22;469;48.770;9.176;2022-07-25T01:22:52;22.30;1.00
963;DHT22;469;48.770;9.176;2022-07-25T01:25:19;22.40;1.00
963;DHT22;469;48.770;9.176;2022-07-25T01:27:47;22.30;1.00
963;DHT22;469;48.770;9.176;2022-07-25T01:30:18;22.40;1.00
963;DHT22;469;48.770;9.176;2022-07-25T01:32:46;22.40;1.00
963;DHT22;469;48.770;9.176;2022-07-25T01:35:13;22.30;1.00
963;DHT22;469;48.770;9.176;2022-07-25T01:37:42;22.30;1.00
963;DHT22;469;48.770;9.176;2022-07-25T01:40:09;22.40;1.00
963;DHT22;469;48.770;9.176;2022-07-25T01:42:36;22.40;1.00
963;DHT22;469;48.770;9.176;2022-07-25T01:45:03;22.40;1.00
963;DHT22;469;48.770;9.176;2022-07-25T01:47:30;22.40;1.00
963;DHT22;469;48.770;9.176;2022-07-25T01:49:57;22.50;1.00
963;DHT22;469;48.770;9.176;2022-07-25T01:52:24;22.40;1.00
963;DHT22;469;48.770;9.176;2022-07-25T01:54:52;22.40;1.00
963;DHT22;469;48.770;9.176;2022-07-25T01:57:18;22.40;1.00
963;DHT22;469;48.770;9.176;2022-07-25T01:59:45;22.40;1.00
963;DHT22;469;48.770;9.176;2022-07-25T02:02:12;22.40;1.00
963;DHT22;469;48.770;9.176;2022-07-25T02:04:39;22.30;1.00
963;DHT22;469;48.770;9.176;2022-07-25T02:07:05;22.30;1.00
963;DHT22;469;48.770;9.176;2022-07-25T02:09:32;22.30;1.00
963;DHT22;469;48.770;9.176;2022-07-25T02:12:00;22.30;1.00
963;DHT22;469;48.770;9.176;2022-07-25T02:14:27;22.20;1.00
963;DHT22;469;48.770;9.176;2022-07-25T02:16:53;22.20;1.00
963;DHT22;469;48.770;9.176;2022-07-25T02:19:20;22.30;1.00
963;DHT22;469;48.770;9.176;2022-07-25T02:21:47;22.30;1.00
963;DHT22;469;48.770;9.176;2022-07-25T02:24:13;22.30;1.00
963;DHT22;469;48.770;9.176;2022-07-25T02:26:40;22.30;1.00
963;DHT22;469;48.770;9.176;2022-07-25T02:29:08;22.30;1.00
963;DHT22;469;48.770;9.176;2022-07-25T02:31:35;22.30;1.00
963;DHT22;469;48.770;9.176;2022-07-25T02:34:02;22.20;1.00
963;DHT22;469;48.770;9.176;2022-07-25T02:36:29;22.20;1.00
963;DHT22;469;48.770;9.176;2022-07-25T02:38:55;22.20;1.00
963;DHT22;469;48.770;9.176;2022-07-25T02:41:22;22.20;1.00
963;DHT22;469;48.770;9.176;2022-07-25T02:43:49;22.20;1.00
963;DHT22;469;48.770;9.176;2022-07-25T02:46:17;22.20;1.00
963;DHT22;469;48.770;9.176;2022-07-25T07:43:05;22.10;1.00
963;DHT22;469;48.770;9.176;2022-07-25T07:53:01;28.30;1.00
963;DHT22;469;48.770;9.176;2022-07-25T07:58:17;28.60;1.00
963;DHT22;469;48.770;9.176;2022-07-25T08:00:46;28.60;1.00
963;DHT22;469;48.770;9.176;2022-07-25T08:03:17;28.70;1.00
963;DHT22;469;48.770;9.176;2022-07-25T08:05:44;28.80;1.00
963;DHT22;469;48.770;9.176;2022-07-25T08:08:14;28.90;1.00
963;DHT22;469;48.770;9.176;2022-07-25T08:10:43;29.00;1.00
963;DHT22;469;48.770;9.176;2022-07-25T08:13:14;29.20;1.00
963;DHT22;469;48.770;9.176;2022-07-25T08:15:42;29.20;1.00
963;DHT22;469;48.770;9.176;2022-07-25T08:51:22;30.70;1.00
963;DHT22;469;48.770;9.176;2022-07-25T08:53:50;30.70;1.00
963;DHT22;469;48.770;9.176;2022-07-25T08:56:16;30.70;1.00
963;DHT22;469;48.770;9.176;2022-07-25T08:58:43;30.70;1.00
963;DHT22;469;48.770;9.176;2022-07-25T09:01:10;30.90;1.00
963;DHT22;469;48.770;9.176;2022-07-25T09:03:38;30.90;1.00
963;DHT22;469;48.770;9.176;2022-07-25T09:06:16;31.00;1.00
963;DHT22;469;48.770;9.176;2022-07-25T09:08:54;31.00;1.00
963;DHT22;469;48.770;9.176;2022-07-25T09:11:26;31.10;1.00
963;DHT22;469;48.770;9.176;2022-07-25T09:13:57;31.20;1.00
963;DHT22;469;48.770;9.176;2022-07-25T09:16:28;31.30;1.00
963;DHT22;469;48.770;9.176;2022-07-25T09:19:05;31.30;1.00
963;DHT22;469;48.770;9.176;2022-07-25T09:21:32;31.30;1.00
963;DHT22;469;48.770;9.176;2022-07-25T09:24:09;31.40;1.00
963;DHT22;469;48.770;9.176;2022-07-25T09:26:46;31.50;1.00
963;DHT22;469;48.770;9.176;2022-07-25T12:45:50;35.70;1.00
963;DHT22;469;48.770;9.176;2022-07-25T12:51:20;35.20;1.00
963;DHT22;469;48.770;9.176;2022-07-25T12:56:22;35.40;1.00
963;DHT22;469;48.770;9.176;2022-07-25T12:58:49;35.40;1.00
963;DHT22;469;48.770;9.176;2022-07-25T13:01:18;35.30;1.00
963;DHT22;469;48.770;9.176;2022-07-25T13:03:59;35.30;1.00
963;DHT22;469;48.770;9.176;2022-07-25T13:06:37;35.30;1.00
963;DHT22;469;48.770;9.176;2022-07-25T13:09:11;35.30;1.00
963;DHT22;469;48.770;9.176;2022-07-25T13:11:39;35.10;1.00
963;DHT22;469;48.770;9.176;2022-07-25T13:14:09;35.30;1.00
963;DHT22;469;48.770;9.176;2022-07-25T13:16:41;35.50;1.00
963;DHT22;469;48.770;9.176;2022-07-25T13:19:12;35.70;1.00
963;DHT22;469;48.770;9.176;2022-07-25T13:21:40;35.90;1.00
963;DHT22;469;48.770;9.176;2022-07-25T13:24:13;36.00;1.00
963;DHT22;469;48.770;9.176;2022-07-25T13:26:40;35.80;1.00
963;DHT22;469;48.770;9.176;2022-07-25T13:29:10;35.70;1.00
963;DHT22;469;48.770;9.176;2022-07-25T13:31:46;35.60;1.00
963;DHT22;469;48.770;9.176;2022-07-25T13:34:16;36.00;1.00
963;DHT22;469;48.770;9.176;2022-07-25T13:36:46;36.50;1.00
963;DHT22;469;48.770;9.176;2022-07-25T13:39:13;36.90;1.00
963;DHT22;469;48.770;9.176;2022-07-25T13:41:43;37.00;1.00
963;DHT22;469;48.770;9.176;2022-07-25T13:44:12;36.90;1.00
963;DHT22;469;48.770;9.176;2022-07-25T13:46:41;36.60;1.00
963;DHT22;469;48.770;9.176;2022-07-25T13:49:09;36.50;1.00
963;DHT22;469;48.770;9.176;2022-07-25T13:51:39;36.60;1.00
963;DHT22;469;48.770;9.176;2022-07-25T13:54:07;36.70;1.00
963;DHT22;469;48.770;9.176;2022-07-25T13:56:37;36.60;1.00
963;DHT22;469;48.770;9.176;2022-07-25T13:59:09;36.40;1.00
963;DHT22;469;48.770;9.176;2022-07-25T14:01:41;36.20;1.00
963;DHT22;469;48.770;9.176;2022-07-25T14:04:22;36.30;1.00
963;DHT22;469;48.770;9.176;2022-07-25T14:07:05;36.20;1.00
963;DHT22;469;48.770;9.176;2022-07-25T14:09:32;36.00;1.00
963;DHT22;469;48.770;9.176;2022-07-25T14:12:05;35.90;1.00
963;DHT22;469;48.770;9.176;2022-07-25T14:14:34;36.10;1.00
963;DHT22;469;48.770;9.176;2022-07-25T14:17:21;36.20;1.00
963;DHT22;469;48.770;9.176;2022-07-25T14:20:09;36.30;1.00
963;DHT22;469;48.770;9.176;2022-07-25T14:22:46;36.20;1.00
963;DHT22;469;48.770;9.176;2022-07-25T14:25:18;36.30;1.00
963;DHT22;469;48.770;9.176;2022-07-25T14:27:51;36.40;1.00
963;DHT22;469;48.770;9.176;2022-07-25T14:30:20;36.50;1.00
963;DHT22;469;48.770;9.176;2022-07-25T14:32:49;36.60;1.00
963;DHT22;469;48.770;9.176;2022-07-25T14:38:21;37.30;1.00
963;DHT22;469;48.770;9.176;2022-07-25T14:40:57;38.10;1.00
963;DHT22;469;48.770;9.176;2022-07-25T14:43:24;38.90;1.00
963;DHT22;469;48.770;9.176;2022-07-25T14:45:50;39.50;1.00
963;DHT22;469;48.770;9.176;2022-07-25T14:48:18;39.20;1.00
963;DHT22;469;48.770;9.176;2022-07-25T14:50:48;39.40;1.00
963;DHT22;469;48.770;9.176;2022-07-25T14:53:19;39.30;1.00
963;DHT22;469;48.770;9.176;2022-07-25T14:55:49;39.20;1.00
963;DHT22;469;48.770;9.176;2022-07-25T14:58:59;39.00;1.00
963;DHT22;469;48.770;9.176;2022-07-25T15:01:47;38.80;1.00
963;DHT22;469;48.770;9.176;2022-07-25T15:07:56;38.00;1.00
963;DHT22;469;48.770;9.176;2022-07-25T15:10:30;37.60;1.00
963;DHT22;469;48.770;9.176;2022-07-25T15:16:30;37.60;1.00
963;DHT22;469;48.770;9.176;2022-07-25T15:35:10;37.30;1.00
963;DHT22;469;48.770;9.176;2022-07-25T15:37:39;36.40;1.00
963;DHT22;469;48.770;9.176;2022-07-25T15:40:12;36.60;1.00
963;DHT22;469;48.770;9.176;2022-07-25T15:42:38;35.90;1.00
963;DHT22;469;48.770;9.176;2022-07-25T15:45:07;35.60;1.00
963;DHT22;469;48.770;9.176;2022-07-25T15:47:34;35.40;1.00
963;DHT22;469;48.770;9.176;2022-07-25T15:50:02;35.20;1.00
963;DHT22;469;48.770;9.176;2022-07-25T15:52:29;34.70;1.00
963;DHT22;469;48.770;9.176;2022-07-25T17:01:36;34.20;1.00
963;DHT22;469;48.770;9.176;2022-07-25T17:04:06;36.40;1.00
963;DHT22;469;48.770;9.176;2022-07-25T17:06:33;36.80;1.00
963;DHT22;469;48.770;9.176;2022-07-25T17:09:00;36.90;1.00
963;DHT22;469;48.770;9.176;2022-07-25T17:11:28;37.50;1.00
963;DHT22;469;48.770;9.176;2022-07-25T17:13:57;37.50;1.00
963;DHT22;469;48.770;9.176;2022-07-25T17:16:25;37.30;1.00
963;DHT22;469;48.770;9.176;2022-07-25T17:18:52;37.10;1.00
963;DHT22;469;48.770;9.176;2022-07-25T17:21:19;37.00;1.00
963;DHT22;469;48.770;9.176;2022-07-25T17:23:46;37.00;1.00
963;DHT22;469;48.770;9.176;2022-07-25T17:26:15;36.60;1.00
963;DHT22;469;48.770;9.176;2022-07-25T17:28:43;36.70;1.00
963;DHT22;469;48.770;9.176;2022-07-25T17:31:10;36.40;1.00
963;DHT22;469;48.770;9.176;2022-07-25T17:33:36;36.20;1.00
963;DHT22;469;48.770;9.176;2022-07-25T17:36:04;36.10;1.00
963;DHT22;469;48.770;9.176;2022-07-25T17:38:31;36.00;1.00
963;DHT22;469;48.770;9.176;2022-07-25T17:40:58;35.70;1.00
963;DHT22;469;48.770;9.176;2022-07-25T17:43:24;35.60;1.00
963;DHT22;469;48.770;9.176;2022-07-25T17:45:54;35.70;1.00
963;DHT22;469;48.770;9.176;2022-07-25T17:48:21;35.50;1.00
963;DHT22;469;48.770;9.176;2022-07-25T17:50:48;35.30;1.00
963;DHT22;469;48.770;9.176;2022-07-25T17:53:16;35.30;1.00
963;DHT22;469;48.770;9.176;2022-07-25T17:55:43;35.60;1.00
963;DHT22;469;48.770;9.176;2022-07-25T17:58:10;35.30;1.00
963;DHT22;469;48.770;9.176;2022-07-25T18:00:37;35.00;1.00
963;DHT22;469;48.770;9.176;2022-07-25T18:03:05;35.00;1.00
963;DHT22;469;48.770;9.176;2022-07-25T18:05:32;34.60;1.00
963;DHT22;469;48.770;9.176;2022-07-25T18:07:59;34.40;1.00
963;DHT22;469;48.770;9.176;2022-07-25T18:10:27;34.00;1.00
963;DHT22;469;48.770;9.176;2022-07-25T20:32:41;33.70;1.00
963;DHT22;469;48.770;9.176;2022-07-25T20:35:10;26.80;1.00
963;DHT22;469;48.770;9.176;2022-07-25T20:37:37;26.50;1.00
963;DHT22;469;48.770;9.176;2022-07-25T20:40:05;26.50;1.00
963;DHT22;469;48.770;9.176;2022-07-25T20:42:35;26.40;1.00
963;DHT22;469;48.770;9.176;2022-07-25T20:45:02;26.40;1.00
963;DHT22;469;48.770;9.176;2022-07-25T20:47:30;26.30;1.00
963;DHT22;469;48.770;9.176;2022-07-25T20:49:57;26.30;1.00
963;DHT22;469;48.770;9.176;2022-07-25T20:52:25;26.30;1.00
963;DHT22;469;48.770;9.176;2022-07-25T20:54:52;26.20;1.00
963;DHT22;469;48.770;9.176;2022-07-25T20:57:19;26.20;1.00
963;DHT22;469;48.770;9.176;2022-07-25T20:59:46;26.10;1.00
963;DHT22;469;48.770;9.176;2022-07-25T21:02:21;26.00;1.00
963;DHT22;469;48.770;9.176;2022-07-25T21:04:53;26.00;1.00
963;DHT22;469;48.770;9.176;2022-07-25T21:07:24;26.00;1.00
963;DHT22;469;48.770;9.176;2022-07-25T21:09:51;25.90;1.00
963;DHT22;469;48.770;9.176;2022-07-25T21:12:18;25.90;1.00
963;DHT22;469;48.770;9.176;2022-07-25T21:14:45;25.80;1.00
963;DHT22;469;48.770;9.176;2022-07-25T21:17:14;25.80;1.00
963;DHT22;469;48.770;9.176;2022-07-25T21:19:41;25.70;1.00
963;DHT22;469;48.770;9.176;2022-07-25T21:22:10;25.60;1.00
963;DHT22;469;48.770;9.176;2022-07-25T21:24:38;25.60;1.00
963;DHT22;469;48.770;9.176;2022-07-25T21:27:08;25.60;1.00
963;DHT22;469;48.770;9.176;2022-07-25T21:29:35;25.50;1.00
963;DHT22;469;48.770;9.176;2022-07-25T21:32:02;25.50;1.00
963;DHT22;469;48.770;9.176;2022-07-25T21:34:29;25.50;1.00
963;DHT22;469;48.770;9.176;2022-07-25T21:36:56;25.50;1.00
963;DHT22;469;48.770;9.176;2022-07-25T21:39:23;25.40;1.00
963;DHT22;469;48.770;9.176;2022-07-25T21:41:51;25.30;1.00
963;DHT22;469;48.770;9.176;2022-07-25T21:44:18;25.30;1.00
963;DHT22;469;48.770;9.176;2022-07-25T21:46:45;25.30;1.00
963;DHT22;469;48.770;9.176;2022-07-25T21:49:12;25.30;1.00
963;DHT22;469;48.770;9.176;2022-07-25T21:51:58;25.30;1.00
963;DHT22;469;48.770;9.176;2022-07-25T21:54:25;25.20;1.00
963;DHT22;469;48.770;9.176;2022-07-25T21:56:55;25.20;1.00
963;DHT22;469;48.770;9.176;2022-07-25T21:59:22;25.10;1.00
963;DHT22;469;48.770;9.176;2022-07-25T22:01:49;25.10;1.00
963;DHT22;469;48.770;9.176;2022-07-25T22:04:17;25.00;1.00
963;DHT22;469;48.770;9.176;2022-07-25T22:06:46;25.00;1.00
963;DHT22;469;48.770;9.176;2022-07-25T22:09:15;24.90;1.00
963;DHT22;469;48.770;9.176;2022-07-25T22:11:45;24.90;1.00
963;DHT22;469;48.770;9.176;2022-07-25T22:14:16;24.80;1.00
963;DHT22;469;48.770;9.176;2022-07-25T22:16:45;24.80;1.00
963;DHT22;469;48.770;9.176;2022-07-25T22:19:15;24.80;1.00
963;DHT22;469;48.770;9.176;2022-07-25T22:21:46;24.80;1.00
963;DHT22;469;48.770;9.176;2022-07-25T22:24:16;24.70;1.00
963;DHT22;469;48.770;9.176;2022-07-25T22:26:42;24.70;1.00
963;DHT22;469;48.770;9.176;2022-07-25T22:29:09;24.60;1.00
963;DHT22;469;48.770;9.176;2022-07-25T22:31:40;24.60;1.00
963;DHT22;469;48.770;9.176;2022-07-25T22:34:08;24.60;1.00
963;DHT22;469;48.770;9.176;2022-07-25T22:36:35;24.60;1.00
963;DHT22;469;48.770;9.176;2022-07-25T22:39:02;24.60;1.00
963;DHT22;469;48.770;9.176;2022-07-25T22:41:29;24.60;1.00
963;DHT22;469;48.770;9.176;2022-07-25T22:43:56;24.60;1.00
963;DHT22;469;48.770;9.176;2022-07-25T22:46:23;24.50;1.00
963;DHT22;469;48.770;9.176;2022-07-25T22:48:53;24.50;1.00
963;DHT22;469;48.770;9.176;2022-07-25T22:51:20;24.50;1.00
963;DHT22;469;48.770;9.176;2022-07-25T22:53:46;24.50;1.00
963;DHT22;469;48.770;9.176;2022-07-25T22:56:13;24.50;1.00
